Time;durP1;ratioP1;P1;durP2;ratioP2;P2;SDS_P1;SDS_P2;PMS_P1;PMS_P2;Temp;Humidity;BMP_temperature;BMP_pressure;BME280_temperature;BME280_humidity;BME280_pressure;Samples;Min_cycle;Max_cycle;Signal;HPM_P1;HPM_P2
2022/03/18 00:01:56;;;;;;;17.35;8.68;;;4.30;99.90;;;;;;5050254;28;20041;-48
2022/03/18 00:04:22;;;;;;;18.40;8.55;;;4.00;99.90;;;;;;5048970;28;20041;-46
2022/03/18 00:06:47;;;;;;;22.52;8.73;;;4.00;99.90;;;;;;5050199;28;20059;-47
2022/03/18 00:09:13;;;;;;;18.17;8.18;;;4.00;99.90;;;;;;5049572;28;20395;-47
2022/03/18 00:11:39;;;;;;;19.00;8.63;;;4.00;99.90;;;;;;5049884;28;20033;-47
2022/03/18 00:14:05;;;;;;;21.65;9.00;;;3.90;99.90;;;;;;5050276;28;20036;-48
2022/03/18 00:16:30;;;;;;;26.23;9.30;;;4.00;99.90;;;;;;5049831;28;20037;-45
2022/03/18 00:18:58;;;;;;;17.80;8.40;;;3.80;99.90;;;;;;5050087;28;20029;-51
2022/03/18 00:21:25;;;;;;;19.92;8.60;;;3.80;99.90;;;;;;5050174;28;20041;-50
2022/03/18 00:23:50;;;;;;;20.42;9.20;;;3.80;99.90;;;;;;5048416;28;20045;-44
2022/03/18 00:26:16;;;;;;;22.15;8.00;;;3.70;99.90;;;;;;5050146;28;20044;-50
2022/03/18 00:28:42;;;;;;;24.15;9.27;;;3.80;99.90;;;;;;5065559;28;20663;-46
2022/03/18 00:31:08;;;;;;;21.65;9.10;;;3.80;99.90;;;;;;5049737;28;20102;-47
2022/03/18 00:33:34;;;;;;;24.35;8.48;;;3.60;99.90;;;;;;5049801;28;20045;-46
2022/03/18 00:36:01;;;;;;;23.92;8.77;;;3.60;99.90;;;;;;5048406;28;20049;-47
2022/03/18 00:38:27;;;;;;;18.50;8.48;;;3.60;99.90;;;;;;5049924;28;20045;-44
2022/03/18 00:40:56;;;;;;;20.73;8.70;;;3.70;99.90;;;;;;5049527;28;20036;-45
2022/03/18 00:43:22;;;;;;;21.85;7.80;;;3.60;99.90;;;;;;5049720;28;20060;-48
2022/03/18 00:45:48;;;;;;;18.27;8.05;;;3.70;99.90;;;;;;5049976;28;20041;-48
2022/03/18 00:53:42;;;;;;;;;;;3.70;99.90;;;;;;5048461;28;20509;-47
2022/03/18 00:56:08;;;;;;;21.98;8.18;;;3.60;99.90;;;;;;5065807;28;19944;-46
2022/03/18 00:58:33;;;;;;;15.48;7.57;;;3.70;99.90;;;;;;5049495;28;20072;-46
2022/03/18 01:00:59;;;;;;;19.70;8.88;;;3.80;99.90;;;;;;5049677;28;20033;-47
2022/03/18 01:03:25;;;;;;;19.08;7.95;;;3.70;99.90;;;;;;5048136;28;20037;-47
2022/03/18 01:05:51;;;;;;;19.58;8.32;;;3.70;99.90;;;;;;5049589;28;20082;-46
2022/03/18 01:08:16;;;;;;;23.00;8.57;;;3.60;99.90;;;;;;5049562;28;20070;-44
2022/03/18 01:10:42;;;;;;;18.40;8.70;;;3.50;99.90;;;;;;5049188;28;20033;-48
2022/03/18 01:13:08;;;;;;;20.35;8.60;;;3.60;99.90;;;;;;5047398;28;20029;-44
2022/03/18 01:15:33;;;;;;;18.10;8.48;;;3.60;99.90;;;;;;5067030;28;20167;-48
2022/03/18 01:17:59;;;;;;;16.50;8.45;;;3.50;99.90;;;;;;5052731;28;20044;-50
2022/03/18 01:20:25;;;;;;;21.05;8.68;;;3.50;99.90;;;;;;5052664;28;20039;-50
2022/03/18 01:22:51;;;;;;;19.17;8.05;;;3.50;99.90;;;;;;5052311;28;20040;-48
2022/03/18 01:25:17;;;;;;;19.98;8.13;;;3.30;99.90;;;;;;5052171;28;20408;-46
2022/03/18 01:27:43;;;;;;;19.35;8.43;;;3.30;99.90;;;;;;5051902;28;20040;-48
2022/03/18 01:30:09;;;;;;;19.98;7.80;;;3.30;99.90;;;;;;5052929;28;20072;-47
2022/03/18 01:32:35;;;;;;;16.55;7.82;;;3.30;99.90;;;;;;5052650;28;20973;-47
2022/03/18 01:35:01;;;;;;;17.60;7.60;;;3.20;99.90;;;;;;5052806;28;20044;-48
2022/03/18 01:37:27;;;;;;;19.08;7.88;;;3.20;99.90;;;;;;5052770;28;20539;-50
2022/03/18 01:39:53;;;;;;;18.02;8.00;;;3.20;99.90;;;;;;5052193;28;20049;-47
2022/03/18 01:42:18;;;;;;;17.25;7.32;;;3.20;99.90;;;;;;5052674;28;20072;-47
2022/03/18 01:44:46;;;;;;;19.42;8.25;;;3.30;99.90;;;;;;5052137;28;20114;-48
2022/03/18 01:47:12;;;;;;;18.38;7.72;;;3.10;99.90;;;;;;5052227;28;20069;-47
2022/03/18 01:49:38;;;;;;;17.77;8.07;;;3.20;99.90;;;;;;5052738;28;20515;-49
2022/03/18 01:52:09;;;;;;;18.00;8.10;;;3.40;99.90;;;;;;5052659;28;20033;-49
2022/03/18 01:54:44;;;;;;;20.17;8.55;;;3.30;99.90;;;;;;5052453;28;20044;-49
2022/03/18 01:57:12;;;;;;;17.42;7.57;;;3.30;99.90;;;;;;5052605;28;20044;-45
2022/03/18 01:59:37;;;;;;;21.30;7.88;;;3.30;99.90;;;;;;5052500;28;20464;-46
2022/03/18 02:02:04;;;;;;;24.88;8.32;;;3.30;99.90;;;;;;5052513;28;20115;-48
2022/03/18 02:04:30;;;;;;;19.15;8.88;;;3.10;99.90;;;;;;5052220;28;20380;-45
2022/03/18 02:06:56;;;;;;;19.00;8.70;;;3.10;99.90;;;;;;5052316;28;20037;-46
2022/03/18 02:09:22;;;;;;;21.50;8.98;;;3.20;99.90;;;;;;5051772;28;20044;-48
2022/03/18 02:11:48;;;;;;;20.75;8.52;;;3.30;99.90;;;;;;5067663;28;20140;-46
2022/03/18 02:14:28;;;;;;;21.08;8.15;;;3.30;99.90;;;;;;5048747;28;20068;-48
2022/03/18 02:16:53;;;;;;;17.85;7.43;;;3.30;99.90;;;;;;5049343;28;20045;-47
2022/03/18 02:19:19;;;;;;;21.38;8.20;;;3.10;99.90;;;;;;5050541;28;20041;-49
2022/03/18 02:21:48;;;;;;;22.27;7.63;;;3.10;99.90;;;;;;5051724;28;20102;-48
2022/03/18 02:24:13;;;;;;;19.60;8.13;;;3.40;99.90;;;;;;5052107;28;20039;-47
2022/03/18 02:26:39;;;;;;;20.90;8.10;;;3.20;99.90;;;;;;5050240;28;20128;-45
2022/03/18 02:29:07;;;;;;;18.15;8.45;;;3.10;99.90;;;;;;5049838;28;20047;-48
2022/03/18 02:31:32;;;;;;;20.40;7.68;;;3.10;99.90;;;;;;5051544;28;20036;-45
2022/03/18 02:33:58;;;;;;;18.30;8.55;;;3.30;99.90;;;;;;5051458;28;20048;-47
2022/03/18 02:36:24;;;;;;;20.95;8.82;;;3.00;99.90;;;;;;5051899;28;20033;-50
2022/03/18 02:38:49;;;;;;;17.55;8.23;;;3.10;99.90;;;;;;5067172;28;20369;-47
2022/03/18 02:41:15;;;;;;;18.48;8.18;;;3.00;99.90;;;;;;5051403;28;20465;-49
2022/03/18 02:43:41;;;;;;;19.13;8.23;;;2.90;99.90;;;;;;5051190;28;20033;-49
2022/03/18 02:46:07;;;;;;;21.27;8.10;;;3.20;99.90;;;;;;5051104;28;20057;-48
2022/03/18 02:48:32;;;;;;;19.52;8.05;;;3.10;99.90;;;;;;5051087;28;20098;-49
2022/03/18 02:50:58;;;;;;;17.30;8.15;;;3.00;99.90;;;;;;5051232;28;20037;-52
2022/03/18 02:53:24;;;;;;;25.63;7.93;;;3.00;99.90;;;;;;5051160;28;20091;-47
2022/03/18 02:55:49;;;;;;;23.85;7.22;;;3.10;99.90;;;;;;5032957;28;20041;-48
2022/03/18 02:58:15;;;;;;;19.05;8.13;;;3.10;99.90;;;;;;5048731;28;20094;-46
2022/03/18 03:00:40;;;;;;;22.23;8.10;;;2.90;99.90;;;;;;5050766;28;20033;-50
2022/03/18 03:03:06;;;;;;;21.52;8.85;;;3.10;99.90;;;;;;5051010;28;20029;-47
2022/03/18 03:08:16;;;;;;;16.15;8.70;;;2.80;99.90;;;;;;5050754;28;20083;-51
2022/03/18 03:10:43;;;;;;;24.67;9.52;;;2.90;99.90;;;;;;5050623;28;20080;-50
2022/03/18 03:13:11;;;;;;;20.85;8.60;;;2.80;99.90;;;;;;5048459;28;20045;-48
2022/03/18 03:15:38;;;;;;;22.98;8.98;;;2.70;99.90;;;;;;5050832;28;20126;-47
2022/03/18 03:18:05;;;;;;;19.83;9.13;;;2.80;99.90;;;;;;5049460;28;20090;-47
2022/03/18 03:20:31;;;;;;;17.83;9.07;;;2.70;99.90;;;;;;5050690;28;20443;-50
2022/03/18 03:22:57;;;;;;;24.83;9.82;;;2.60;99.90;;;;;;5049877;28;20032;-44
2022/03/18 03:25:23;;;;;;;22.00;9.88;;;2.80;99.90;;;;;;5049891;28;20552;-48
2022/03/18 03:27:53;;;;;;;15.23;9.07;;;2.50;99.90;;;;;;5047313;28;20045;-47
2022/03/18 03:30:19;;;;;;;22.17;9.70;;;2.50;99.90;;;;;;5050704;28;20472;-45
2022/03/18 03:32:44;;;;;;;21.52;9.15;;;2.60;99.90;;;;;;5050731;28;20067;-47
2022/03/18 03:35:10;;;;;;;22.15;10.52;;;2.80;99.90;;;;;;5050564;28;20397;-47
2022/03/18 03:37:36;;;;;;;21.42;9.13;;;2.80;99.90;;;;;;5048251;28;20041;-46
2022/03/18 03:40:03;;;;;;;26.45;10.38;;;2.50;99.90;;;;;;5049781;28;20112;-50
2022/03/18 03:42:29;;;;;;;20.17;9.60;;;2.50;99.90;;;;;;5050686;28;20392;-50
2022/03/18 03:44:55;;;;;;;23.35;10.27;;;2.60;99.90;;;;;;5050288;28;20061;-47
2022/03/18 03:47:20;;;;;;;24.25;9.25;;;2.50;99.90;;;;;;5050631;28;20045;-49
2022/03/18 03:49:46;;;;;;;22.23;9.48;;;2.70;99.90;;;;;;5050209;28;20391;-48
2022/03/18 03:52:12;;;;;;;22.30;9.85;;;2.80;99.90;;;;;;5050503;28;21342;-50
2022/03/18 03:54:40;;;;;;;23.25;9.65;;;2.50;99.90;;;;;;5050138;28;20041;-46
2022/03/18 03:57:06;;;;;;;19.42;9.13;;;2.70;99.90;;;;;;5050838;28;20035;-48
2022/03/18 03:59:32;;;;;;;18.60;9.70;;;2.70;99.90;;;;;;5049972;28;20044;-48
2022/03/18 04:01:58;;;;;;;19.83;9.35;;;2.80;99.90;;;;;;5049980;28;20029;-48
2022/03/18 04:04:27;;;;;;;22.63;10.13;;;2.50;99.90;;;;;;5050002;28;20041;-45
2022/03/18 04:06:53;;;;;;;19.58;9.48;;;2.50;99.90;;;;;;5050242;28;20064;-48
2022/03/18 04:09:19;;;;;;;20.52;9.55;;;2.70;99.90;;;;;;5050326;28;20095;-48
2022/03/18 04:11:45;;;;;;;25.20;10.43;;;2.50;99.90;;;;;;5048450;28;20041;-46
2022/03/18 04:14:11;;;;;;;21.45;10.13;;;2.50;99.90;;;;;;5050289;28;20033;-45
2022/03/18 04:16:36;;;;;;;18.33;9.68;;;2.50;99.90;;;;;;5050174;28;20139;-50
2022/03/18 04:19:03;;;;;;;23.67;10.35;;;2.60;99.90;;;;;;5050094;28;20358;-50
2022/03/18 04:21:29;;;;;;;23.58;10.82;;;2.50;99.90;;;;;;5049922;28;20110;-50
2022/03/18 04:23:55;;;;;;;22.55;10.23;;;2.30;99.90;;;;;;5049781;28;20041;-47
2022/03/18 04:26:21;;;;;;;22.38;10.93;;;2.50;99.90;;;;;;5049879;28;20043;-47
2022/03/18 04:28:46;;;;;;;21.73;10.25;;;2.40;99.90;;;;;;5049898;28;20047;-48
2022/03/18 04:31:12;;;;;;;22.88;11.48;;;2.30;99.90;;;;;;5048486;28;20040;-45
2022/03/18 04:33:38;;;;;;;24.90;11.15;;;2.50;99.90;;;;;;5050126;28;20477;-46
2022/03/18 04:36:04;;;;;;;20.10;10.35;;;2.30;99.90;;;;;;5049968;28;20047;-47
2022/03/18 04:38:30;;;;;;;23.05;11.00;;;2.50;99.90;;;;;;5049556;28;20040;-47
2022/03/18 04:40:56;;;;;;;25.35;11.25;;;2.60;99.90;;;;;;5049622;28;20033;-44
2022/03/18 04:43:21;;;;;;;26.02;11.27;;;2.10;99.90;;;;;;5049985;28;20056;-48
2022/03/18 04:45:47;;;;;;;23.90;11.00;;;2.50;99.90;;;;;;5049253;28;20049;-48
2022/03/18 04:48:13;;;;;;;25.92;10.77;;;2.20;99.90;;;;;;5049841;28;20049;-50
2022/03/18 04:50:38;;;;;;;22.35;10.70;;;2.40;99.90;;;;;;5052466;28;20033;-47
2022/03/18 04:53:04;;;;;;;18.13;11.10;;;2.50;99.90;;;;;;5053688;28;20033;-47
2022/03/18 04:55:30;;;;;;;25.98;11.43;;;2.30;99.90;;;;;;5052437;28;20041;-48
2022/03/18 04:57:56;;;;;;;29.23;11.60;;;2.10;99.90;;;;;;5049417;28;20523;-45
2022/03/18 05:00:24;;;;;;;24.30;11.18;;;2.40;99.90;;;;;;5053370;28;20037;-47
2022/03/18 05:02:51;;;;;;;20.23;10.07;;;2.40;99.90;;;;;;5053063;28;20381;-48
2022/03/18 05:05:19;;;;;;;21.25;10.63;;;2.40;99.90;;;;;;5053144;28;20032;-46
2022/03/18 05:07:49;;;;;;;21.48;10.13;;;2.20;99.90;;;;;;5051636;28;20484;-47
2022/03/18 05:10:16;;;;;;;20.15;10.98;;;2.10;99.90;;;;;;5051545;28;20552;-46
2022/03/18 05:12:41;;;;;;;24.33;12.25;;;2.40;99.90;;;;;;5053039;28;20056;-49
2022/03/18 05:15:08;;;;;;;28.25;12.40;;;2.40;99.90;;;;;;5034974;28;20472;-46
2022/03/18 05:17:35;;;;;;;24.85;12.02;;;2.40;99.90;;;;;;5052908;28;20484;-47
2022/03/18 05:20:01;;;;;;;20.30;11.00;;;2.10;99.90;;;;;;5051872;28;20481;-46
2022/03/18 05:22:27;;;;;;;23.52;11.10;;;1.90;99.90;;;;;;5052566;28;20044;-51
2022/03/18 05:24:52;;;;;;;23.30;11.15;;;2.00;99.90;;;;;;5053089;28;20041;-47
2022/03/18 05:27:18;;;;;;;21.40;11.15;;;1.80;99.90;;;;;;5052823;28;20048;-49
2022/03/18 05:29:44;;;;;;;24.10;11.07;;;1.80;99.90;;;;;;5050259;28;20477;-46
2022/03/18 05:32:10;;;;;;;21.05;10.63;;;1.90;99.90;;;;;;5052838;28;20044;-47
2022/03/18 05:34:37;;;;;;;30.13;12.32;;;2.10;99.90;;;;;;5051946;28;20116;-48
2022/03/18 05:37:05;;;;;;;25.80;12.25;;;2.30;99.90;;;;;;5052742;28;20095;-46
2022/03/18 05:39:32;;;;;;;24.73;11.80;;;2.10;99.90;;;;;;5051172;28;20073;-44
2022/03/18 05:41:59;;;;;;;23.92;12.10;;;2.00;99.90;;;;;;5048795;28;20068;-44
2022/03/18 05:44:25;;;;;;;25.90;11.32;;;1.80;99.90;;;;;;5050120;28;20053;-49
2022/03/18 05:46:54;;;;;;;24.25;11.68;;;2.10;99.90;;;;;;5052326;28;20134;-47
2022/03/18 05:49:19;;;;;;;22.85;11.63;;;2.10;99.90;;;;;;5052640;28;20167;-45
2022/03/18 05:51:46;;;;;;;25.55;12.57;;;1.80;99.90;;;;;;5052538;28;20124;-50
2022/03/18 05:54:12;;;;;;;26.83;11.63;;;1.90;99.90;;;;;;5052570;28;20120;-46
2022/03/18 05:56:53;;;;;;;28.25;12.02;;;1.80;99.90;;;;;;5052193;28;20049;-46
2022/03/18 05:59:24;;;;;;;31.45;15.00;;;1.90;99.90;;;;;;5050796;28;20119;-47
2022/03/18 06:01:51;;;;;;;24.25;14.00;;;2.10;99.90;;;;;;5052258;28;20044;-47
2022/03/18 06:04:17;;;;;;;29.90;14.32;;;2.30;99.90;;;;;;5050713;28;20103;-46
2022/03/18 06:06:44;;;;;;;28.90;13.57;;;2.10;99.90;;;;;;5052389;28;20120;-45
2022/03/18 06:11:55;;;;;;;25.67;12.05;;;1.90;99.90;;;;;;5051817;28;20353;-47
2022/03/18 06:14:23;;;;;;;27.88;13.82;;;1.80;99.90;;;;;;5050679;28;20132;-46
2022/03/18 06:16:50;;;;;;;29.90;15.18;;;1.80;99.90;;;;;;5051782;28;20055;-47
2022/03/18 06:19:21;;;;;;;30.00;15.90;;;2.30;99.90;;;;;;5049794;28;20116;-47
2022/03/18 06:21:46;;;;;;;30.13;15.63;;;2.40;99.90;;;;;;5049550;28;20428;-44
2022/03/18 06:24:13;;;;;;;34.50;15.88;;;2.00;99.90;;;;;;5052101;28;20025;-48
2022/03/18 06:26:39;;;;;;;30.92;15.75;;;2.50;99.90;;;;;;5051864;28;20392;-47
2022/03/18 06:29:06;;;;;;;32.90;16.58;;;2.30;99.90;;;;;;5051884;28;20119;-48
2022/03/18 06:31:32;;;;;;;32.63;17.65;;;2.40;99.90;;;;;;5051933;28;20396;-46
2022/03/18 06:33:58;;;;;;;33.75;16.77;;;2.20;99.90;;;;;;5051844;28;20037;-47
2022/03/18 06:36:25;;;;;;;37.30;17.42;;;2.20;99.90;;;;;;5051750;28;20124;-48
2022/03/18 06:38:50;;;;;;;31.33;17.30;;;2.30;99.90;;;;;;5051264;28;20040;-48
2022/03/18 06:41:18;;;;;;;32.03;17.15;;;2.30;99.90;;;;;;5048431;28;20037;-45
2022/03/18 06:43:43;;;;;;;33.42;17.25;;;2.70;99.90;;;;;;5051743;28;20075;-43
2022/03/18 06:46:11;;;;;;;35.25;18.92;;;2.30;99.90;;;;;;5051058;28;20060;-45
2022/03/18 06:48:36;;;;;;;45.20;18.23;;;2.80;99.90;;;;;;5051478;28;20041;-44
2022/03/18 06:51:02;;;;;;;39.33;19.05;;;2.80;99.90;;;;;;5051107;28;20055;-49
2022/03/18 06:53:28;;;;;;;32.97;18.05;;;2.90;99.90;;;;;;5050076;28;20041;-48
2022/03/18 06:55:54;;;;;;;38.33;18.77;;;2.90;99.90;;;;;;5049824;28;20076;-48
2022/03/18 06:58:20;;;;;;;30.25;17.45;;;2.70;99.90;;;;;;5051131;28;20033;-47
2022/03/18 07:00:45;;;;;;;35.17;19.45;;;2.90;99.90;;;;;;5051016;28;20071;-46
2022/03/18 07:03:13;;;;;;;34.55;18.00;;;3.00;99.90;;;;;;5051385;28;20082;-48
2022/03/18 07:05:39;;;;;;;31.63;18.40;;;2.80;99.90;;;;;;5051248;28;20465;-47
2022/03/18 07:08:05;;;;;;;35.40;16.90;;;3.10;99.90;;;;;;5051198;28;20044;-44
2022/03/18 07:10:31;;;;;;;30.85;16.08;;;2.80;99.90;;;;;;5050561;28;20481;-47
2022/03/18 07:12:56;;;;;;;33.50;16.73;;;3.10;99.90;;;;;;5047503;28;20036;-45
2022/03/18 07:15:22;;;;;;;33.20;16.13;;;3.30;99.90;;;;;;5050770;28;20052;-46
2022/03/18 07:18:01;;;;;;;36.63;16.80;;;3.10;99.90;;;;;;5050275;28;20044;-45
2022/03/18 07:20:28;;;;;;;35.25;17.42;;;3.30;99.90;;;;;;5050854;28;20037;-44
2022/03/18 07:22:59;;;;;;;33.47;18.77;;;3.40;99.90;;;;;;5048931;28;20041;-44
2022/03/18 07:25:25;;;;;;;31.17;17.55;;;3.10;99.90;;;;;;5050765;28;20064;-45
2022/03/18 07:27:51;;;;;;;36.00;17.60;;;3.40;99.90;;;;;;5047994;28;20411;-46
2022/03/18 07:30:16;;;;;;;37.53;18.73;;;3.30;99.90;;;;;;5051065;28;20727;-44
2022/03/18 07:32:42;;;;;;;34.33;19.20;;;3.50;99.90;;;;;;5049295;28;20041;-49
2022/03/18 07:35:10;;;;;;;38.95;18.83;;;3.50;99.90;;;;;;5050569;28;20045;-46
2022/03/18 07:37:36;;;;;;;39.65;19.17;;;3.70;99.90;;;;;;5050519;28;20067;-45
2022/03/18 07:40:02;;;;;;;34.63;18.25;;;3.90;99.90;;;;;;5050110;28;20037;-45
2022/03/18 07:42:38;;;;;;;36.83;18.85;;;3.90;99.90;;;;;;5049930;28;20052;-47
2022/03/18 07:45:04;;;;;;;38.35;19.05;;;3.70;99.90;;;;;;5045230;28;20495;-46
2022/03/18 07:47:30;;;;;;;35.30;20.00;;;3.70;99.90;;;;;;5044820;28;20045;-49
2022/03/18 07:49:56;;;;;;;39.85;19.50;;;4.10;99.90;;;;;;5048474;28;20107;-49
2022/03/18 07:52:22;;;;;;;36.00;20.20;;;3.90;99.90;;;;;;5046789;28;20041;-49
2022/03/18 07:54:48;;;;;;;33.08;17.88;;;4.30;99.90;;;;;;5046002;28;20047;-49
2022/03/18 07:57:13;;;;;;;31.95;19.65;;;4.30;99.90;;;;;;5049166;28;20024;-48
2022/03/18 07:59:39;;;;;;;36.72;19.27;;;4.30;99.90;;;;;;5049105;28;20072;-47
2022/03/18 08:02:05;;;;;;;34.17;18.75;;;4.20;99.90;;;;;;5046283;28;20064;-50
2022/03/18 08:04:31;;;;;;;35.95;19.13;;;4.60;99.90;;;;;;5040843;28;20047;-43
2022/03/18 08:06:56;;;;;;;35.63;20.45;;;4.50;99.90;;;;;;5041281;28;20037;-50
2022/03/18 08:09:23;;;;;;;35.15;20.58;;;4.50;99.90;;;;;;5040951;28;20068;-48
2022/03/18 08:11:48;;;;;;;38.28;21.77;;;4.60;99.90;;;;;;5065789;28;20029;-48
2022/03/18 08:14:14;;;;;;;46.80;24.45;;;4.90;99.90;;;;;;5041234;28;20040;-50
2022/03/18 08:16:40;;;;;;;48.58;24.05;;;5.20;99.90;;;;;;5041789;28;20037;-45
2022/03/18 08:19:05;;;;;;;46.75;26.20;;;5.20;99.90;;;;;;5039553;28;20535;-47
2022/03/18 08:21:33;;;;;;;56.83;29.33;;;5.40;99.90;;;;;;5040998;28;20486;-49
2022/03/18 08:23:59;;;;;;;54.03;28.30;;;5.40;99.90;;;;;;5042019;28;20037;-47
2022/03/18 08:26:26;;;;;;;46.38;27.15;;;5.40;99.90;;;;;;5044023;28;20028;-49
2022/03/18 08:28:52;;;;;;;51.40;29.17;;;5.50;99.90;;;;;;5044671;28;20037;-46
2022/03/18 08:31:18;;;;;;;50.45;25.75;;;5.50;99.90;;;;;;5045344;28;20032;-47
2022/03/18 08:33:43;;;;;;;44.50;24.92;;;5.30;99.90;;;;;;5043619;28;20064;-48
2022/03/18 08:36:09;;;;;;;43.47;25.13;;;5.40;99.90;;;;;;5043180;28;20098;-47
2022/03/18 08:38:34;;;;;;;48.05;26.80;;;5.50;99.90;;;;;;5042853;28;20037;-45
2022/03/18 08:41:00;;;;;;;48.80;28.00;;;6.00;99.90;;;;;;5043431;28;20037;-49
2022/03/18 08:43:26;;;;;;;49.42;27.85;;;6.20;99.90;;;;;;5042096;28;20044;-51
2022/03/18 08:45:52;;;;;;;50.90;26.50;;;6.20;99.90;;;;;;5043338;28;20454;-48
2022/03/18 08:48:17;;;;;;;52.45;28.25;;;6.20;99.90;;;;;;5043419;28;20041;-49
2022/03/18 08:50:43;;;;;;;57.65;30.05;;;6.10;99.90;;;;;;5043162;28;20095;-50
2022/03/18 08:53:11;;;;;;;75.38;31.52;;;6.30;99.90;;;;;;5042684;28;20040;-50
2022/03/18 08:55:39;;;;;;;61.40;32.63;;;6.60;99.90;;;;;;5040535;28;20369;-48
2022/03/18 08:58:05;;;;;;;63.65;33.45;;;7.00;99.90;;;;;;5040365;28;20094;-46
2022/03/18 09:00:32;;;;;;;65.38;34.22;;;7.00;99.90;;;;;;5041427;28;20037;-48
2022/03/18 09:02:58;;;;;;;58.25;31.38;;;7.00;99.90;;;;;;5039135;28;20049;-48
2022/03/18 09:05:23;;;;;;;58.65;31.05;;;7.30;99.90;;;;;;5039561;28;20040;-50
2022/03/18 09:07:49;;;;;;;62.50;29.83;;;7.30;99.90;;;;;;5043025;28;20366;-49
2022/03/18 09:10:15;;;;;;;54.42;29.92;;;7.30;99.90;;;;;;5042892;28;20041;-51
2022/03/18 09:12:48;;;;;;;49.28;25.75;;;7.60;99.90;;;;;;5042346;28;20477;-49
2022/03/18 09:15:15;;;;;;;53.67;27.25;;;7.70;99.90;;;;;;5042861;28;20037;-46
2022/03/18 09:17:41;;;;;;;55.30;28.30;;;7.90;99.90;;;;;;5041474;28;20032;-47
2022/03/18 09:20:07;;;;;;;55.70;29.17;;;8.20;99.90;;;;;;5040565;28;20051;-48
2022/03/18 09:22:33;;;;;;;50.55;26.92;;;8.20;99.90;;;;;;5040204;28;20033;-49
2022/03/18 09:24:59;;;;;;;48.47;23.95;;;8.60;99.90;;;;;;5041862;28;20063;-48
2022/03/18 09:27:24;;;;;;;43.80;22.58;;;8.70;99.90;;;;;;5042104;28;20036;-48
2022/03/18 09:29:50;;;;;;;41.85;20.08;;;8.90;99.90;;;;;;5041655;28;20033;-48
2022/03/18 09:32:16;;;;;;;40.33;19.50;;;9.00;99.90;;;;;;5041726;28;20045;-46
2022/03/18 09:34:42;;;;;;;39.67;19.35;;;9.30;99.90;;;;;;5041364;28;20037;-49
2022/03/18 09:37:08;;;;;;;33.63;19.17;;;9.60;99.90;;;;;;5042383;28;20025;-45
2022/03/18 09:39:34;;;;;;;33.75;19.23;;;9.40;99.90;;;;;;5042974;28;20037;-48
2022/03/18 09:42:00;;;;;;;34.10;18.13;;;9.60;99.90;;;;;;5041064;28;20082;-50
2022/03/18 09:44:40;;;;;;;32.35;18.02;;;9.80;99.90;;;;;;5042210;28;20053;-49
2022/03/18 09:47:09;;;;;;;34.72;16.05;;;9.80;99.90;;;;;;5041468;28;20080;-49
2022/03/18 09:49:36;;;;;;;32.00;15.02;;;10.20;99.90;;;;;;5045199;28;20064;-46
2022/03/18 09:52:03;;;;;;;32.10;14.38;;;10.40;99.90;;;;;;5039737;28;20447;-47
2022/03/18 09:54:32;;;;;;;26.40;14.57;;;10.70;99.90;;;;;;5038195;28;20047;-46
2022/03/18 09:56:58;;;;;;;26.58;13.57;;;10.50;99.90;;;;;;5045525;28;20041;-50
2022/03/18 09:59:26;;;;;;;27.27;13.23;;;10.50;99.90;;;;;;5045746;28;20036;-48
2022/03/18 10:02:28;;;;;;;27.58;14.13;;;10.70;99.90;;;;;;5047546;28;20048;-47
2022/03/18 10:04:58;;;;;;;28.13;12.63;;;11.10;99.90;;;;;;5049752;28;20162;-47
2022/03/18 10:07:26;;;;;;;27.75;12.80;;;11.20;99.90;;;;;;5049180;28;20357;-47
2022/03/18 10:10:15;;;;;;;25.73;12.77;;;11.20;99.90;;;;;;5050616;28;20041;-53
2022/03/18 10:12:47;;;;;;;29.08;12.35;;;11.30;99.90;;;;;;5051267;28;20055;-47
2022/03/18 10:15:22;;;;;;;26.25;12.23;;;11.30;99.90;;;;;;5050988;28;20045;-46
2022/03/18 10:17:50;;;;;;;27.67;12.43;;;11.10;99.90;;;;;;5051249;28;20076;-47
2022/03/18 10:20:23;;;;;;;21.45;10.63;;;11.40;99.90;;;;;;5051415;28;20067;-53
2022/03/18 10:22:50;;;;;;;22.55;10.95;;;11.40;99.90;;;;;;5046595;28;20040;-47
2022/03/18 10:25:37;;;;;;;20.80;11.55;;;11.50;99.90;;;;;;5044815;28;20051;-48
2022/03/18 10:28:04;;;;;;;21.73;11.63;;;11.60;99.90;;;;;;5042738;28;20049;-50
2022/03/18 10:30:31;;;;;;;19.40;10.20;;;11.60;99.90;;;;;;5044641;28;20044;-49
2022/03/18 10:32:57;;;;;;;18.80;10.07;;;11.80;99.90;;;;;;5043320;28;20044;-48
2022/03/18 10:38:14;;;;;;;22.95;10.82;;;12.00;99.90;;;;;;5051333;28;20033;-49
2022/03/18 10:40:40;;;;;;;21.65;10.07;;;12.10;99.90;;;;;;5050313;28;20041;-49
2022/03/18 10:43:07;;;;;;;20.77;9.88;;;12.20;99.90;;;;;;5050946;28;20037;-47
2022/03/18 10:45:34;;;;;;;22.40;9.70;;;12.20;99.90;;;;;;5048190;28;20060;-49
2022/03/18 10:48:17;;;;;;;20.33;8.85;;;12.20;99.90;;;;;;5047134;28;20035;-55
2022/03/18 10:50:45;;;;;;;16.20;9.13;;;12.30;99.90;;;;;;5048522;28;20037;-45
2022/03/18 10:53:12;;;;;;;19.77;9.55;;;12.30;99.90;;;;;;5050010;28;20079;-49
2022/03/18 10:55:42;;;;;;;17.88;8.48;;;12.60;99.90;;;;;;5048984;28;20056;-51
2022/03/18 10:58:11;;;;;;;15.00;7.95;;;12.70;99.90;;;;;;5044006;28;20044;-50
2022/03/18 11:00:43;;;;;;;20.83;8.60;;;12.60;99.90;;;;;;5041635;28;20041;-53
2022/03/18 11:03:11;;;;;;;22.05;9.05;;;12.80;99.90;;;;;;5045501;28;20045;-47
2022/03/18 11:06:03;;;;;;;20.77;8.65;;;12.90;99.90;;;;;;5042645;28;20504;-47
2022/03/18 11:08:37;;;;;;;14.02;6.82;;;13.00;99.90;;;;;;5043765;28;20061;-50
2022/03/18 11:11:18;;;;;;;14.45;7.72;;;13.30;99.90;;;;;;5039717;28;20037;-47
2022/03/18 11:14:06;;;;;;;16.33;7.88;;;13.30;99.90;;;;;;5042139;28;20044;-50
2022/03/18 11:16:38;;;;;;;14.90;7.05;;;13.60;99.90;;;;;;5045573;28;20037;-52
2022/03/18 11:19:14;;;;;;;21.00;7.53;;;13.70;99.90;;;;;;5043399;28;20115;-53
2022/03/18 11:21:41;;;;;;;17.10;7.60;;;13.70;99.90;;;;;;5042958;28;20033;-50
2022/03/18 11:24:12;;;;;;;15.75;6.82;;;13.60;99.90;;;;;;5047437;28;20106;-52
2022/03/18 11:26:46;;;;;;;18.35;7.65;;;13.80;99.90;;;;;;5041164;28;20400;-48
2022/03/18 11:29:14;;;;;;;12.32;6.70;;;13.90;99.90;;;;;;5044717;28;20066;-49
2022/03/18 11:31:40;;;;;;;12.50;6.45;;;14.10;99.90;;;;;;5033371;28;20091;-50
2022/03/18 11:34:15;;;;;;;12.88;7.10;;;14.00;99.90;;;;;;5030810;28;20048;-50
2022/03/18 11:37:09;;;;;;;14.55;6.63;;;13.90;99.90;;;;;;5042577;28;20040;-47
2022/03/18 11:39:35;;;;;;;15.90;6.70;;;14.30;99.90;;;;;;5063591;28;20085;-54
2022/03/18 11:42:10;;;;;;;16.15;7.13;;;14.30;99.90;;;;;;5049103;28;20075;-49
2022/03/18 11:44:52;;;;;;;11.65;6.32;;;14.40;99.90;;;;;;5045106;28;20065;-51
2022/03/18 11:47:20;;;;;;;16.92;6.15;;;14.80;99.90;;;;;;5049993;28;20045;-49
2022/03/18 11:49:47;;;;;;;12.55;6.05;;;14.90;99.90;;;;;;5049744;28;20441;-51
2022/03/18 11:52:13;;;;;;;12.70;5.60;;;15.00;99.90;;;;;;5048477;28;20044;-50
2022/03/18 11:54:53;;;;;;;13.32;5.60;;;15.20;99.90;;;;;;5040700;28;20037;-48
2022/03/18 11:57:33;;;;;;;12.15;5.75;;;15.60;99.90;;;;;;5039416;28;20029;-50
2022/03/18 12:00:05;;;;;;;14.68;5.72;;;15.70;99.90;;;;;;5038327;28;20049;-52
2022/03/18 12:02:38;;;;;;;11.80;5.10;;;15.90;99.90;;;;;;5039827;28;20045;-53
2022/03/18 12:05:07;;;;;;;15.88;5.78;;;15.90;99.90;;;;;;5039804;28;20041;-50
2022/03/18 12:07:54;;;;;;;11.10;5.13;;;15.90;99.90;;;;;;5040152;28;23201;-48
2022/03/18 12:10:36;;;;;;;12.27;5.18;;;16.40;99.90;;;;;;5039083;28;20037;-52
2022/03/18 12:13:03;;;;;;;10.40;4.70;;;16.90;99.90;;;;;;5039764;28;20487;-52
2022/03/18 12:15:30;;;;;;;13.00;4.47;;;16.90;99.90;;;;;;5040105;28;20047;-50
2022/03/18 12:17:57;;;;;;;13.27;4.68;;;16.80;99.90;;;;;;5033085;28;20059;-52
2022/03/18 12:20:25;;;;;;;10.82;4.32;;;16.10;99.90;;;;;;5035153;28;20388;-51
2022/03/18 12:22:53;;;;;;;12.35;4.55;;;16.00;99.90;;;;;;5037727;28;20033;-49
2022/03/18 12:25:22;;;;;;;14.70;6.03;;;16.70;99.90;;;;;;5038342;28;20045;-50
2022/03/18 12:27:52;;;;;;;10.52;4.53;;;17.20;99.90;;;;;;5039801;28;20068;-49
2022/03/18 12:30:23;;;;;;;12.70;3.85;;;16.80;99.90;;;;;;5040105;28;20116;-50
2022/03/18 12:33:00;;;;;;;12.02;3.40;;;17.10;99.90;;;;;;5038722;28;20033;-53
2022/03/18 12:35:29;;;;;;;8.55;3.17;;;17.30;99.90;;;;;;5040237;28;20041;-51
2022/03/18 12:38:04;;;;;;;13.13;3.47;;;17.70;99.90;;;;;;5040564;28;20387;-46
2022/03/18 12:40:30;;;;;;;9.15;3.10;;;17.90;98.80;;;;;;5040513;28;20045;-51
2022/03/18 12:42:58;;;;;;;9.18;3.42;;;17.60;99.90;;;;;;5022838;28;20071;-50
2022/03/18 12:45:28;;;;;;;11.35;3.63;;;17.50;99.90;;;;;;5040181;28;20146;-48
2022/03/18 12:48:02;;;;;;;14.32;3.40;;;17.70;99.20;;;;;;5040235;28;20037;-53
2022/03/18 12:50:34;;;;;;;9.35;3.17;;;17.70;99.70;;;;;;5038582;28;20492;-51
2022/03/18 12:53:16;;;;;;;8.70;2.78;;;17.50;98.80;;;;;;5039475;28;20041;-49
2022/03/18 12:55:43;;;;;;;12.68;4.00;;;16.60;99.50;;;;;;5038664;28;20052;-47
2022/03/18 12:58:10;;;;;;;9.63;3.67;;;16.70;99.90;;;;;;5036966;28;20112;-49